createdAt,value
2018-03-21T00:00:42.055Z,0
2018-03-21T00:01:44.548Z,0
2018-03-21T00:02:46.916Z,0
2018-03-21T00:03:49.285Z,0
2018-03-21T00:04:51.896Z,0
2018-03-21T00:05:54.267Z,0
2018-03-21T00:06:56.916Z,0
2018-03-21T00:07:59.290Z,0
2018-03-21T00:09:02.226Z,0
2018-03-21T00:10:04.600Z,0
2018-03-21T00:11:06.960Z,0
2018-03-21T00:12:09.336Z,0
2018-03-21T00:13:11.690Z,0
2018-03-21T00:14:14.074Z,0
2018-03-21T00:15:16.716Z,0
2018-03-21T00:16:19.079Z,0
2018-03-21T00:17:21.544Z,0
2018-03-21T00:18:24.221Z,0
2018-03-21T00:19:26.583Z,0
2018-03-21T00:20:29.123Z,0
2018-03-21T00:21:31.492Z,0
2018-03-21T00:22:33.854Z,0
2018-03-21T00:23:36.444Z,0
2018-03-21T00:24:38.803Z,0
2018-03-21T00:25:41.170Z,0
2018-03-21T00:26:43.685Z,0
2018-03-21T00:27:46.328Z,0
2018-03-21T00:28:48.976Z,0
2018-03-21T00:29:51.941Z,0
2018-03-21T00:30:54.294Z,0
2018-03-21T00:31:56.957Z,0
2018-03-21T00:32:59.340Z,0
2018-03-21T00:34:01.721Z,0
2018-03-21T00:35:04.091Z,0
2018-03-21T00:36:07.419Z,0
2018-03-21T00:37:10.064Z,0
2018-03-21T00:38:12.444Z,0
2018-03-21T00:39:15.082Z,0
2018-03-21T00:40:17.766Z,0
2018-03-21T00:41:20.414Z,0
2018-03-21T00:42:22.781Z,0
2018-03-21T00:43:25.151Z,0
2018-03-21T00:44:27.795Z,0
2018-03-21T00:45:30.458Z,0
2018-03-21T00:46:32.830Z,0
2018-03-21T00:47:35.193Z,0
2018-03-21T00:48:37.576Z,0
2018-03-21T00:49:39.935Z,0
2018-03-21T00:50:42.311Z,0
2018-03-21T00:51:44.677Z,0
2018-03-21T00:52:47.057Z,0
2018-03-21T00:53:49.992Z,0
2018-03-21T00:54:52.359Z,0
2018-03-21T00:55:54.715Z,0
2018-03-21T00:56:57.076Z,0
2018-03-21T00:57:59.452Z,0
2018-03-21T00:59:01.818Z,0
2018-03-21T01:00:04.179Z,0
2018-03-21T01:01:06.551Z,0
2018-03-21T01:02:08.914Z,0
2018-03-21T01:03:11.297Z,0
2018-03-21T01:04:13.670Z,0
2018-03-21T01:05:16.027Z,0
2018-03-21T01:06:18.396Z,0
2018-03-21T01:07:20.769Z,0
2018-03-21T01:08:23.132Z,0
2018-03-21T01:09:25.548Z,0
2018-03-21T01:10:27.873Z,0
2018-03-21T01:11:30.235Z,0
2018-03-21T01:12:32.619Z,0
2018-03-21T01:13:34.993Z,0
2018-03-21T01:14:37.350Z,0
2018-03-21T01:15:39.720Z,0
2018-03-21T01:16:42.367Z,0
2018-03-21T01:17:44.733Z,0
2018-03-21T01:18:47.105Z,0
2018-03-21T01:19:49.462Z,0
2018-03-21T01:20:51.830Z,0
2018-03-21T01:21:54.209Z,0
2018-03-21T01:22:56.685Z,0
2018-03-21T01:23:59.049Z,0
2018-03-21T01:25:01.692Z,0
2018-03-21T01:26:04.100Z,0
2018-03-21T01:27:06.466Z,0
2018-03-21T01:28:08.842Z,0
2018-03-21T01:29:11.486Z,0
2018-03-21T01:30:13.855Z,0
2018-03-21T01:31:16.221Z,0
2018-03-21T01:32:19.380Z,0
2018-03-21T01:33:21.743Z,0
2018-03-21T01:34:24.116Z,0
2018-03-21T01:35:26.575Z,0
2018-03-21T01:36:28.937Z,0
2018-03-21T01:37:31.343Z,0
2018-03-21T01:38:33.783Z,0
2018-03-21T01:39:36.441Z,0
2018-03-21T01:40:38.809Z,0
2018-03-21T01:41:41.216Z,0
2018-03-21T01:42:43.576Z,0
2018-03-21T01:43:45.948Z,0
2018-03-21T01:44:48.334Z,0
2018-03-21T01:45:50.706Z,0
2018-03-21T01:46:53.077Z,0
2018-03-21T01:47:55.454Z,0
2018-03-21T01:48:57.819Z,0
2018-03-21T01:50:00.780Z,0
2018-03-21T01:51:03.136Z,0
2018-03-21T01:52:05.788Z,0
2018-03-21T01:53:08.472Z,0
2018-03-21T01:54:11.115Z,0
2018-03-21T01:55:13.482Z,0
2018-03-21T01:56:15.854Z,0
2018-03-21T01:57:18.501Z,0
2018-03-21T01:58:20.862Z,0
2018-03-21T01:59:23.528Z,0
2018-03-21T02:00:25.878Z,0
2018-03-21T02:01:28.251Z,0
2018-03-21T02:02:30.919Z,0
2018-03-21T02:03:33.279Z,0
2018-03-21T02:04:35.652Z,0
2018-03-21T02:05:38.028Z,0
2018-03-21T02:06:40.784Z,0
2018-03-21T02:07:43.149Z,0
2018-03-21T02:08:45.522Z,0
2018-03-21T02:09:48.289Z,0
2018-03-21T02:10:50.948Z,0
2018-03-21T02:11:53.325Z,0
2018-03-21T02:12:55.704Z,0
2018-03-21T02:13:58.066Z,0
2018-03-21T02:15:00.713Z,0
2018-03-21T02:16:03.364Z,0
2018-03-21T02:17:05.730Z,0
2018-03-21T02:18:08.094Z,0
2018-03-21T02:19:10.464Z,0
2018-03-21T02:20:12.820Z,0
2018-03-21T02:21:15.199Z,0
2018-03-21T02:22:17.848Z,0
2018-03-21T02:23:20.211Z,0
2018-03-21T02:24:22.580Z,0
2018-03-21T02:25:24.942Z,0
2018-03-21T02:26:27.306Z,0
2018-03-21T02:27:29.950Z,0
2018-03-21T02:28:32.311Z,0
2018-03-21T02:29:34.666Z,0
2018-03-21T02:30:37.038Z,0
2018-03-21T02:31:40.060Z,0
2018-03-21T02:32:42.417Z,0
2018-03-21T02:33:44.874Z,0
2018-03-21T02:34:47.807Z,0
2018-03-21T02:35:50.173Z,0
2018-03-21T02:36:52.543Z,0
2018-03-21T02:37:54.912Z,0
2018-03-21T02:38:57.311Z,0
2018-03-21T02:39:59.892Z,0
2018-03-21T02:41:02.249Z,0
2018-03-21T02:42:05.302Z,0
2018-03-21T02:43:07.649Z,0
2018-03-21T02:44:10.007Z,0
2018-03-21T02:45:13.021Z,0
2018-03-21T02:46:15.389Z,0
2018-03-21T02:47:17.752Z,0
2018-03-21T02:48:20.296Z,0
2018-03-21T02:49:22.656Z,0
2018-03-21T02:50:25.033Z,0
2018-03-21T02:51:27.392Z,0
2018-03-21T02:52:29.844Z,0
2018-03-21T02:53:32.226Z,0
2018-03-21T02:54:34.719Z,0
2018-03-21T02:55:37.187Z,0
2018-03-21T02:56:40.679Z,0
2018-03-21T02:57:43.224Z,0
2018-03-21T02:58:46.369Z,0
2018-03-21T02:59:49.009Z,0
2018-03-21T03:00:52.440Z,0
2018-03-21T03:01:54.821Z,0
2018-03-21T03:02:57.476Z,0
2018-03-21T03:04:00.151Z,0
2018-03-21T03:05:02.810Z,0
2018-03-21T03:06:05.432Z,0
2018-03-21T03:07:08.352Z,0
2018-03-21T03:08:11.186Z,0
2018-03-21T03:09:13.662Z,0
2018-03-21T03:10:16.764Z,0
2018-03-21T03:11:19.426Z,0
2018-03-21T03:12:22.614Z,0
2018-03-21T03:13:25.091Z,0
2018-03-21T03:14:28.153Z,0
2018-03-21T03:15:31.603Z,0
2018-03-21T03:16:33.984Z,0
2018-03-21T03:17:37.544Z,0
2018-03-21T03:18:40.205Z,0
2018-03-21T03:19:42.884Z,0
2018-03-21T03:20:45.539Z,0
2018-03-21T03:21:47.896Z,0
2018-03-21T03:22:50.262Z,0
2018-03-21T03:23:52.619Z,0
2018-03-21T03:24:54.996Z,0
2018-03-21T03:25:57.351Z,0
2018-03-21T03:26:59.720Z,0
2018-03-21T03:28:02.382Z,0
2018-03-21T03:29:05.309Z,0
2018-03-21T03:30:07.981Z,0
2018-03-21T03:31:10.357Z,0
2018-03-21T03:32:13.045Z,0
2018-03-21T03:33:15.780Z,0
2018-03-21T03:34:18.091Z,0
2018-03-21T03:35:20.436Z,0
2018-03-21T03:36:22.811Z,0
2018-03-21T03:37:25.172Z,0
2018-03-21T03:38:27.815Z,0
2018-03-21T03:39:30.480Z,0
2018-03-21T03:40:32.823Z,0
2018-03-21T03:41:35.196Z,0
2018-03-21T03:42:37.567Z,0
2018-03-21T03:43:39.930Z,0
2018-03-21T03:44:42.329Z,0
2018-03-21T03:45:44.670Z,0
2018-03-21T03:46:47.032Z,0
2018-03-21T03:47:49.411Z,0
2018-03-21T03:48:52.067Z,0
2018-03-21T03:49:54.425Z,0
2018-03-21T03:50:56.799Z,0
2018-03-21T03:51:59.162Z,0
2018-03-21T03:53:02.093Z,0
2018-03-21T03:54:04.460Z,0
2018-03-21T03:55:06.827Z,0
2018-03-21T03:56:09.198Z,0
2018-03-21T03:57:11.560Z,0
2018-03-21T03:58:13.939Z,0
2018-03-21T03:59:16.299Z,0
2018-03-21T04:00:19.249Z,0
2018-03-21T04:01:21.622Z,0
2018-03-21T04:02:23.975Z,0
2018-03-21T04:03:26.340Z,0
2018-03-21T04:04:28.700Z,0
2018-03-21T04:05:31.072Z,0
2018-03-21T04:06:34.020Z,0
2018-03-21T04:07:36.381Z,0
2018-03-21T04:08:38.740Z,0
2018-03-21T04:09:41.107Z,0
2018-03-21T04:10:43.471Z,0
2018-03-21T04:11:45.836Z,0
2018-03-21T04:12:48.482Z,0
2018-03-21T04:13:50.854Z,0
2018-03-21T04:14:53.215Z,0
2018-03-21T04:15:55.890Z,0
2018-03-21T04:16:58.258Z,0
2018-03-21T04:18:00.614Z,0
2018-03-21T04:19:02.978Z,0
2018-03-21T04:20:05.351Z,0
2018-03-21T04:21:07.713Z,0
2018-03-21T04:22:10.362Z,0
2018-03-21T04:23:12.733Z,0
2018-03-21T04:24:15.090Z,0
2018-03-21T04:25:17.469Z,0
2018-03-21T04:26:19.840Z,0
2018-03-21T04:27:22.510Z,0
2018-03-21T04:28:24.871Z,0
2018-03-21T04:29:27.238Z,0
2018-03-21T04:30:29.605Z,0
2018-03-21T04:31:31.964Z,0
2018-03-21T04:32:34.335Z,0
2018-03-21T04:33:36.692Z,0
2018-03-21T04:34:39.067Z,0
2018-03-21T04:35:41.427Z,0
2018-03-21T04:36:44.105Z,0
2018-03-21T04:37:46.452Z,0
2018-03-21T04:38:48.818Z,0
2018-03-21T04:39:51.469Z,0
2018-03-21T04:40:54.136Z,0
2018-03-21T04:41:56.504Z,0
2018-03-21T04:42:58.866Z,0
2018-03-21T04:44:01.235Z,0
2018-03-21T04:45:03.883Z,0
2018-03-21T04:46:06.250Z,0
2018-03-21T04:47:08.896Z,0
2018-03-21T04:48:11.263Z,0
2018-03-21T04:49:13.629Z,0
2018-03-21T04:50:15.993Z,0
2018-03-21T04:51:18.655Z,0
2018-03-21T04:52:21.028Z,0
2018-03-21T04:53:23.677Z,0
2018-03-21T04:54:26.046Z,0
2018-03-21T04:55:28.399Z,0
2018-03-21T04:56:31.068Z,0
2018-03-21T04:57:33.429Z,0
2018-03-21T04:58:35.805Z,0
2018-03-21T04:59:38.164Z,0
2018-03-21T05:00:40.524Z,0
2018-03-21T05:01:42.893Z,0
2018-03-21T05:02:45.539Z,0
2018-03-21T05:03:48.198Z,0
2018-03-21T05:04:50.567Z,0
2018-03-21T05:05:52.923Z,0
2018-03-21T05:06:55.569Z,0
2018-03-21T05:07:57.943Z,1
2018-03-21T05:09:00.306Z,1
2018-03-21T05:10:02.667Z,1
2018-03-21T05:11:05.628Z,1
2018-03-21T05:12:07.988Z,1
2018-03-21T05:13:10.370Z,1
2018-03-21T05:14:12.730Z,1
2018-03-21T05:15:15.372Z,1
2018-03-21T05:16:17.739Z,1
2018-03-21T05:17:20.105Z,1
2018-03-21T05:18:22.790Z,2
2018-03-21T05:19:25.140Z,2
2018-03-21T05:20:27.504Z,2
2018-03-21T05:21:30.159Z,2
2018-03-21T05:22:32.508Z,2
2018-03-21T05:23:35.465Z,3
2018-03-21T05:24:37.840Z,3
2018-03-21T05:25:40.493Z,3
2018-03-21T05:26:42.864Z,3
2018-03-21T05:27:45.519Z,3
2018-03-21T05:28:47.878Z,4
2018-03-21T05:29:50.254Z,4
2018-03-21T05:30:52.616Z,4
2018-03-21T05:31:54.974Z,4
2018-03-21T05:32:57.349Z,4
2018-03-21T05:33:59.998Z,5
2018-03-21T05:35:02.652Z,5
2018-03-21T05:36:05.015Z,5
2018-03-21T05:37:07.662Z,5
2018-03-21T05:38:10.026Z,5
2018-03-21T05:39:12.404Z,6
2018-03-21T05:40:14.772Z,6
2018-03-21T05:41:17.425Z,7
2018-03-21T05:42:19.791Z,7
2018-03-21T05:43:22.153Z,7
2018-03-21T05:44:24.523Z,8
2018-03-21T05:45:27.475Z,8
2018-03-21T05:46:29.826Z,9
2018-03-21T05:47:32.197Z,9
2018-03-21T05:48:34.569Z,9
2018-03-21T05:49:36.932Z,10
2018-03-21T05:50:39.296Z,10
2018-03-21T05:51:41.962Z,11
2018-03-21T05:52:44.330Z,11
2018-03-21T05:53:46.694Z,11
2018-03-21T05:54:49.350Z,12
2018-03-21T05:55:51.729Z,12
2018-03-21T05:56:54.089Z,12
2018-03-21T05:57:56.462Z,13
2018-03-21T05:58:58.822Z,13
2018-03-21T06:00:01.189Z,13
2018-03-21T06:01:03.557Z,13
2018-03-21T06:02:05.929Z,13
2018-03-21T06:03:08.285Z,13
2018-03-21T06:04:10.658Z,14
2018-03-21T06:05:13.027Z,14
2018-03-21T06:06:15.392Z,15
2018-03-21T06:07:17.761Z,15
2018-03-21T06:08:20.416Z,16
2018-03-21T06:09:23.067Z,16
2018-03-21T06:10:25.447Z,16
2018-03-21T06:11:27.790Z,17
2018-03-21T06:12:30.167Z,17
2018-03-21T06:13:32.531Z,17
2018-03-21T06:14:34.902Z,18
2018-03-21T06:15:37.262Z,18
2018-03-21T06:16:39.633Z,18
2018-03-21T06:17:41.993Z,18
2018-03-21T06:18:44.359Z,18
2018-03-21T06:19:46.740Z,19
2018-03-21T06:20:49.395Z,19
2018-03-21T06:21:51.771Z,19
2018-03-21T06:22:54.513Z,20
2018-03-21T06:23:56.875Z,21
2018-03-21T06:24:59.241Z,21
2018-03-21T06:26:01.913Z,22
2018-03-21T06:27:04.273Z,23
2018-03-21T06:28:06.644Z,23
2018-03-21T06:29:09.004Z,24
2018-03-21T06:30:11.380Z,24
2018-03-21T06:31:13.741Z,26
2018-03-21T06:32:16.115Z,25
2018-03-21T06:33:18.474Z,26
2018-03-21T06:34:20.838Z,26
2018-03-21T06:35:23.212Z,26
2018-03-21T06:36:25.856Z,27
2018-03-21T06:37:28.220Z,27
2018-03-21T06:38:30.880Z,27
2018-03-21T06:39:33.243Z,27
2018-03-21T06:40:35.607Z,27
2018-03-21T06:41:37.979Z,27
2018-03-21T06:42:40.336Z,27
2018-03-21T06:43:42.708Z,28
2018-03-21T06:44:45.080Z,28
2018-03-21T06:45:47.432Z,28
2018-03-21T06:46:49.814Z,28
2018-03-21T06:47:52.196Z,28
2018-03-21T06:48:54.560Z,28
2018-03-21T06:49:56.925Z,29
2018-03-21T06:50:59.290Z,30
2018-03-21T06:52:01.658Z,31
2018-03-21T06:53:04.011Z,32
2018-03-21T06:54:06.381Z,33
2018-03-21T06:55:08.774Z,35
2018-03-21T06:56:11.131Z,36
2018-03-21T06:57:13.509Z,37
2018-03-21T06:58:16.160Z,38
2018-03-21T06:59:19.124Z,39
2018-03-21T07:00:21.495Z,40
2018-03-21T07:01:23.862Z,40
2018-03-21T07:02:26.217Z,41
2018-03-21T07:03:29.170Z,43
2018-03-21T07:04:31.535Z,45
2018-03-21T07:05:33.904Z,45
2018-03-21T07:06:36.278Z,46
2018-03-21T07:07:38.927Z,47
2018-03-21T07:08:41.296Z,48
2018-03-21T07:09:43.677Z,49
2018-03-21T07:10:46.035Z,50
2018-03-21T07:11:48.405Z,50
2018-03-21T07:12:50.778Z,50
2018-03-21T07:13:53.146Z,52
2018-03-21T07:14:55.507Z,52
2018-03-21T07:15:57.881Z,53
2018-03-21T07:17:00.252Z,55
2018-03-21T07:18:02.896Z,55
2018-03-21T07:19:05.281Z,56
2018-03-21T07:20:07.960Z,57
2018-03-21T07:21:10.330Z,58
2018-03-21T07:22:12.692Z,58
2018-03-21T07:23:15.059Z,58
2018-03-21T07:24:17.432Z,59
2018-03-21T07:25:19.806Z,59
2018-03-21T07:26:22.449Z,59
2018-03-21T07:27:24.832Z,59
2018-03-21T07:28:27.767Z,59
2018-03-21T07:29:30.134Z,59
2018-03-21T07:30:32.497Z,60
2018-03-21T07:31:34.875Z,61
2018-03-21T07:32:37.241Z,62
2018-03-21T07:33:39.613Z,63
2018-03-21T07:34:41.988Z,63
2018-03-21T07:35:44.351Z,64
2018-03-21T07:36:46.725Z,64
2018-03-21T07:37:49.104Z,65
2018-03-21T07:38:51.798Z,66
2018-03-21T07:39:54.169Z,66
2018-03-21T07:40:56.547Z,66
2018-03-21T07:41:59.192Z,68
2018-03-21T07:43:01.567Z,68
2018-03-21T07:44:04.552Z,69
2018-03-21T07:45:07.270Z,72
2018-03-21T07:46:09.630Z,75
2018-03-21T07:47:11.996Z,78
2018-03-21T07:48:14.650Z,86
2018-03-21T07:49:17.015Z,95
2018-03-21T07:50:19.404Z,99
2018-03-21T07:51:21.774Z,105
2018-03-21T07:52:24.417Z,108
2018-03-21T07:53:26.791Z,107
2018-03-21T07:54:29.158Z,103
2018-03-21T07:55:31.808Z,106
2018-03-21T07:56:34.187Z,107
2018-03-21T07:57:36.550Z,108
2018-03-21T07:58:38.929Z,114
2018-03-21T07:59:41.300Z,119
2018-03-21T08:00:43.676Z,124
2018-03-21T08:01:49.153Z,129
2018-03-21T08:02:51.870Z,135
2018-03-21T08:03:54.297Z,142
2018-03-21T08:04:56.730Z,147
2018-03-21T08:05:59.148Z,153
2018-03-21T08:07:01.597Z,182
2018-03-21T08:08:04.315Z,177
2018-03-21T08:09:07.601Z,209
2018-03-21T08:10:10.326Z,206
2018-03-21T08:11:13.034Z,219
2018-03-21T08:12:15.748Z,213
2018-03-21T08:13:18.180Z,197
2018-03-21T08:14:20.594Z,197
2018-03-21T08:15:23.033Z,191
2018-03-21T08:16:25.743Z,184
2018-03-21T08:17:28.165Z,181
2018-03-21T08:18:30.608Z,173
2018-03-21T08:19:33.031Z,170
2018-03-21T08:20:35.456Z,173
2018-03-21T08:21:38.013Z,162
2018-03-21T08:22:40.445Z,156
2018-03-21T08:23:42.874Z,154
2018-03-21T08:24:45.308Z,158
2018-03-21T08:25:48.328Z,163
2018-03-21T08:26:50.765Z,157
2018-03-21T08:27:53.202Z,147
2018-03-21T08:28:55.628Z,142
2018-03-21T08:29:58.058Z,145
2018-03-21T08:31:00.487Z,161
2018-03-21T08:32:02.926Z,179
2018-03-21T08:33:05.644Z,180
2018-03-21T08:34:08.070Z,211
2018-03-21T08:35:10.505Z,240
2018-03-21T08:36:12.935Z,223
2018-03-21T08:37:15.727Z,200
2018-03-21T08:38:18.160Z,179
2018-03-21T08:39:21.179Z,172
2018-03-21T08:40:23.864Z,164
2018-03-21T08:41:26.880Z,159
2018-03-21T08:42:29.313Z,150
2018-03-21T08:43:31.758Z,144
2018-03-21T08:44:34.211Z,143
2018-03-21T08:45:36.635Z,142
2018-03-21T08:46:39.390Z,140
2018-03-21T08:47:42.171Z,140
2018-03-21T08:48:46.166Z,145
2018-03-21T08:49:48.722Z,147
2018-03-21T08:50:51.440Z,150
2018-03-21T08:51:53.877Z,144
2018-03-21T08:52:56.601Z,141
2018-03-21T08:53:59.102Z,140
2018-03-21T08:55:01.532Z,140
2018-03-21T08:56:04.040Z,144
2018-03-21T08:57:06.896Z,146
2018-03-21T08:58:09.327Z,148
2018-03-21T08:59:11.763Z,149
2018-03-21T09:00:14.265Z,148
2018-03-21T09:01:16.709Z,147
2018-03-21T09:02:19.147Z,148
2018-03-21T09:03:21.592Z,146
2018-03-21T09:04:24.015Z,141
2018-03-21T09:05:26.442Z,140
2018-03-21T09:06:28.903Z,141
2018-03-21T09:07:31.366Z,142
2018-03-21T09:08:33.775Z,147
2018-03-21T09:09:36.503Z,154
2018-03-21T09:10:38.980Z,160
2018-03-21T09:11:41.408Z,171
2018-03-21T09:12:44.165Z,190
2018-03-21T09:13:46.617Z,204
2018-03-21T09:14:49.072Z,204
2018-03-21T09:15:51.515Z,196
2018-03-21T09:16:53.937Z,195
2018-03-21T09:17:56.691Z,199
2018-03-21T09:18:59.119Z,211
2018-03-21T09:20:01.560Z,232
2018-03-21T09:21:03.995Z,227
2018-03-21T09:22:06.432Z,218
2018-03-21T09:23:08.942Z,211
2018-03-21T09:24:11.662Z,187
2018-03-21T09:25:14.090Z,203
2018-03-21T09:26:16.525Z,195
2018-03-21T09:27:19.156Z,197
2018-03-21T09:28:21.869Z,205
2018-03-21T09:29:24.294Z,215
2018-03-21T09:30:27.015Z,228
2018-03-21T09:31:29.450Z,235
2018-03-21T09:32:32.190Z,235
2018-03-21T09:33:34.654Z,244
2018-03-21T09:34:37.116Z,259
2018-03-21T09:35:39.833Z,279
2018-03-21T09:36:42.326Z,300
2018-03-21T09:37:44.768Z,302
2018-03-21T09:38:47.492Z,308
2018-03-21T09:39:50.132Z,311
2018-03-21T09:40:52.566Z,317
2018-03-21T09:41:54.981Z,303
2018-03-21T09:42:57.415Z,299
2018-03-21T09:43:59.853Z,295
2018-03-21T09:45:02.582Z,290
2018-03-21T09:46:05.297Z,281
2018-03-21T09:47:08.055Z,276
2018-03-21T09:48:10.484Z,250
2018-03-21T09:49:13.201Z,248
2018-03-21T09:50:15.930Z,259
2018-03-21T09:51:18.356Z,245
2018-03-21T09:52:20.801Z,228
2018-03-21T09:53:23.235Z,215
2018-03-21T09:54:25.680Z,218
2018-03-21T09:55:28.107Z,233
2018-03-21T09:56:30.556Z,235
2018-03-21T09:57:32.979Z,231
2018-03-21T09:58:35.419Z,244
2018-03-21T09:59:37.852Z,249
2018-03-21T10:00:40.345Z,236
2018-03-21T10:01:43.035Z,235
2018-03-21T10:02:45.470Z,237
2018-03-21T10:03:47.905Z,260
2018-03-21T10:04:50.344Z,277
2018-03-21T10:05:52.851Z,289
2018-03-21T10:06:55.307Z,317
2018-03-21T10:07:57.715Z,322
2018-03-21T10:09:00.449Z,302
2018-03-21T10:10:02.884Z,342
2018-03-21T10:11:05.318Z,371
2018-03-21T10:12:07.765Z,397
2018-03-21T10:13:10.196Z,389
2018-03-21T10:14:12.624Z,371
2018-03-21T10:15:15.073Z,366
2018-03-21T10:16:17.804Z,357
2018-03-21T10:17:20.296Z,350
2018-03-21T10:18:22.729Z,340
2018-03-21T10:19:25.470Z,320
2018-03-21T10:20:28.490Z,314
2018-03-21T10:21:31.516Z,285
2018-03-21T10:22:33.961Z,297
2018-03-21T10:23:36.388Z,313
2018-03-21T10:24:38.850Z,324
2018-03-21T10:25:41.287Z,365
2018-03-21T10:26:43.840Z,391
2018-03-21T10:27:46.570Z,385
2018-03-21T10:28:49.014Z,421
2018-03-21T10:29:51.449Z,440
2018-03-21T10:30:54.117Z,314
2018-03-21T10:31:56.582Z,414
2018-03-21T10:32:59.022Z,424
2018-03-21T10:34:01.473Z,454
2018-03-21T10:35:04.495Z,462
2018-03-21T10:36:06.940Z,379
2018-03-21T10:37:09.664Z,269
2018-03-21T10:38:12.101Z,317
2018-03-21T10:39:14.556Z,444
2018-03-21T10:40:16.998Z,462
2018-03-21T10:41:19.440Z,449
2018-03-21T10:42:21.880Z,490
2018-03-21T10:43:24.314Z,475
2018-03-21T10:44:26.761Z,453
2018-03-21T10:45:29.213Z,391
2018-03-21T10:46:31.658Z,321
2018-03-21T10:47:34.095Z,416
2018-03-21T10:48:36.810Z,300
2018-03-21T10:49:39.261Z,454
2018-03-21T10:50:41.983Z,453
2018-03-21T10:51:44.434Z,478
2018-03-21T10:52:47.205Z,461
2018-03-21T10:53:49.649Z,514
2018-03-21T10:54:52.396Z,518
2018-03-21T10:55:55.133Z,480
2018-03-21T10:56:57.571Z,487
2018-03-21T10:58:00.020Z,454
2018-03-21T10:59:02.461Z,394
2018-03-21T11:00:04.891Z,472
2018-03-21T11:01:07.344Z,389
2018-03-21T11:02:09.785Z,254
2018-03-21T11:03:12.517Z,218
2018-03-21T11:04:14.970Z,202
2018-03-21T11:05:17.409Z,183
2018-03-21T11:06:20.143Z,179
2018-03-21T11:07:22.587Z,176
2018-03-21T11:08:25.611Z,181
2018-03-21T11:09:28.335Z,186
2018-03-21T11:10:30.789Z,233
2018-03-21T11:11:33.216Z,221
2018-03-21T11:12:35.656Z,261
2018-03-21T11:13:38.110Z,209
2018-03-21T11:14:40.542Z,212
2018-03-21T11:15:42.975Z,187
2018-03-21T11:16:46.291Z,194
2018-03-21T11:17:48.797Z,192
2018-03-21T11:18:51.168Z,180
2018-03-21T11:19:53.601Z,166
2018-03-21T11:20:56.051Z,161
2018-03-21T11:21:58.503Z,183
2018-03-21T11:23:00.941Z,184
2018-03-21T11:24:03.386Z,204
2018-03-21T11:25:05.819Z,253
2018-03-21T11:26:08.263Z,256
2018-03-21T11:27:10.699Z,226
2018-03-21T11:28:13.134Z,253
2018-03-21T11:29:15.567Z,259
2018-03-21T11:30:18.311Z,359
2018-03-21T11:31:21.030Z,255
2018-03-21T11:32:23.609Z,261
2018-03-21T11:33:26.338Z,218
2018-03-21T11:34:28.761Z,203
2018-03-21T11:35:31.277Z,214
2018-03-21T11:36:34.012Z,257
2018-03-21T11:37:36.727Z,290
2018-03-21T11:38:39.166Z,231
2018-03-21T11:39:41.606Z,230
2018-03-21T11:40:44.056Z,267
2018-03-21T11:41:46.490Z,258
2018-03-21T11:42:48.931Z,254
2018-03-21T11:43:51.352Z,248
2018-03-21T11:44:54.093Z,301
2018-03-21T11:45:56.832Z,354
2018-03-21T11:46:59.370Z,398
2018-03-21T11:48:02.083Z,359
2018-03-21T11:49:04.564Z,294
2018-03-21T11:50:06.999Z,228
2018-03-21T11:51:09.500Z,205
2018-03-21T11:52:11.945Z,198
2018-03-21T11:53:14.380Z,185
2018-03-21T11:54:16.819Z,172
2018-03-21T11:55:19.314Z,169
2018-03-21T11:56:22.370Z,164
2018-03-21T11:57:24.782Z,157
2018-03-21T11:58:27.217Z,146
2018-03-21T11:59:29.654Z,131
2018-03-21T12:00:32.087Z,117
2018-03-21T12:01:34.819Z,107
2018-03-21T12:02:37.254Z,101
2018-03-21T12:03:39.993Z,100
2018-03-21T12:04:42.437Z,101
2018-03-21T12:05:44.877Z,101
2018-03-21T12:06:47.414Z,100
2018-03-21T12:07:49.858Z,97
2018-03-21T12:08:52.290Z,92
2018-03-21T12:09:54.730Z,87
2018-03-21T12:10:57.176Z,85
2018-03-21T12:12:00.192Z,84
2018-03-21T12:13:02.699Z,84
2018-03-21T12:14:05.143Z,88
2018-03-21T12:15:07.589Z,96
2018-03-21T12:16:10.320Z,96
2018-03-21T12:17:13.045Z,89
2018-03-21T12:18:15.486Z,84
2018-03-21T12:19:17.940Z,82
2018-03-21T12:20:20.384Z,82
2018-03-21T12:21:22.823Z,81
2018-03-21T12:22:25.262Z,74
2018-03-21T12:23:27.703Z,63
2018-03-21T12:24:30.244Z,65
2018-03-21T12:25:33.260Z,73
2018-03-21T12:26:35.689Z,75
2018-03-21T12:27:38.403Z,75
2018-03-21T12:28:40.851Z,74
2018-03-21T12:29:43.289Z,78
2018-03-21T12:30:46.044Z,80
2018-03-21T12:31:48.506Z,78
2018-03-21T12:32:50.956Z,78
2018-03-21T12:33:53.353Z,78
2018-03-21T12:34:55.792Z,78
2018-03-21T12:35:58.221Z,78
2018-03-21T12:37:00.962Z,78
2018-03-21T12:38:03.395Z,80
2018-03-21T12:39:05.833Z,80
2018-03-21T12:40:08.551Z,81
2018-03-21T12:41:10.982Z,83
2018-03-21T12:42:13.410Z,85
2018-03-21T12:43:15.867Z,84
2018-03-21T12:44:18.371Z,83
2018-03-21T12:45:20.791Z,75
2018-03-21T12:46:23.223Z,68
2018-03-21T12:47:25.672Z,66
2018-03-21T12:48:28.673Z,63
2018-03-21T12:49:31.406Z,66
2018-03-21T12:50:33.838Z,70
2018-03-21T12:51:36.260Z,74
2018-03-21T12:52:38.716Z,75
2018-03-21T12:53:41.590Z,72
2018-03-21T12:54:44.069Z,72
2018-03-21T12:55:47.793Z,78
2018-03-21T12:56:50.519Z,87
2018-03-21T12:57:52.958Z,93
2018-03-21T12:58:55.410Z,106
2018-03-21T12:59:57.828Z,124
2018-03-21T13:01:00.276Z,129
2018-03-21T13:02:03.015Z,129
2018-03-21T13:03:07.723Z,127
2018-03-21T13:04:10.547Z,122
2018-03-21T13:05:14.364Z,117
2018-03-21T13:06:17.353Z,116
2018-03-21T13:07:19.996Z,114
2018-03-21T13:08:22.569Z,112
2018-03-21T13:09:25.057Z,114
2018-03-21T13:10:27.499Z,123
2018-03-21T13:11:30.012Z,142
2018-03-21T13:12:32.649Z,149
2018-03-21T13:13:35.156Z,134
2018-03-21T13:14:37.578Z,118
2018-03-21T13:15:40.016Z,107
2018-03-21T13:16:42.846Z,97
2018-03-21T13:17:45.660Z,95
2018-03-21T13:18:48.107Z,95
2018-03-21T13:19:50.614Z,93
2018-03-21T13:20:53.236Z,94
2018-03-21T13:21:55.757Z,93
2018-03-21T13:22:58.872Z,95
2018-03-21T13:24:01.491Z,97
2018-03-21T13:25:04.820Z,97
2018-03-21T13:26:07.450Z,96
2018-03-21T13:27:10.402Z,92
2018-03-21T13:28:12.975Z,85
2018-03-21T13:29:15.441Z,80
2018-03-21T13:30:17.886Z,74
2018-03-21T13:31:20.605Z,70
2018-03-21T13:32:23.624Z,69
2018-03-21T13:33:26.780Z,67
2018-03-21T13:34:30.263Z,65
2018-03-21T13:35:33.579Z,62
2018-03-21T13:36:36.475Z,63
2018-03-21T13:37:39.109Z,65
2018-03-21T13:38:41.651Z,66
2018-03-21T13:39:44.087Z,66
2018-03-21T13:40:46.519Z,63
2018-03-21T13:41:49.091Z,61
2018-03-21T13:42:51.581Z,62
2018-03-21T13:43:54.332Z,64
2018-03-21T13:44:56.756Z,63
2018-03-21T13:45:59.507Z,58
2018-03-21T13:47:02.236Z,54
2018-03-21T13:48:04.885Z,52
2018-03-21T13:49:07.602Z,46
2018-03-21T13:50:10.181Z,40
2018-03-21T13:51:12.646Z,38
2018-03-21T13:52:15.097Z,39
2018-03-21T13:53:17.543Z,39
2018-03-21T13:54:20.311Z,36
2018-03-21T13:55:22.705Z,36
2018-03-21T13:56:25.146Z,36
2018-03-21T13:57:27.669Z,33
2018-03-21T13:58:30.108Z,30
2018-03-21T13:59:32.527Z,29
2018-03-21T14:00:34.961Z,26
2018-03-21T14:01:37.686Z,23
2018-03-21T14:02:40.124Z,23
2018-03-21T14:03:42.874Z,24
2018-03-21T14:04:45.311Z,27
2018-03-21T14:05:48.175Z,31
2018-03-21T14:06:50.619Z,40
2018-03-21T14:07:54.115Z,40
2018-03-21T14:08:56.560Z,36
2018-03-21T14:09:59.180Z,30
2018-03-21T14:11:01.689Z,29
2018-03-21T14:12:04.137Z,30
2018-03-21T14:13:07.016Z,35
2018-03-21T14:14:09.431Z,45
2018-03-21T14:15:11.945Z,53
2018-03-21T14:16:14.389Z,64
2018-03-21T14:17:16.836Z,74
2018-03-21T14:18:19.275Z,77
2018-03-21T14:19:21.993Z,78
2018-03-21T14:20:24.427Z,78
2018-03-21T14:21:26.878Z,78
2018-03-21T14:22:29.626Z,78
2018-03-21T14:23:32.153Z,77
2018-03-21T14:24:34.605Z,76
2018-03-21T14:25:37.035Z,76
2018-03-21T14:26:39.464Z,76
2018-03-21T14:27:42.782Z,76
2018-03-21T14:28:45.217Z,75
2018-03-21T14:29:47.934Z,75
2018-03-21T14:30:50.372Z,74
2018-03-21T14:31:52.795Z,73
2018-03-21T14:32:55.235Z,72
2018-03-21T14:33:57.943Z,71
2018-03-21T14:35:00.381Z,70
2018-03-21T14:36:03.096Z,70
2018-03-21T14:37:05.525Z,69
2018-03-21T14:38:07.970Z,68
2018-03-21T14:39:10.686Z,64
2018-03-21T14:40:13.402Z,59
2018-03-21T14:41:15.842Z,56
2018-03-21T14:42:18.257Z,54
2018-03-21T14:43:20.696Z,54
2018-03-21T14:44:23.128Z,55
2018-03-21T14:45:25.563Z,56
2018-03-21T14:46:28.278Z,56
2018-03-21T14:47:30.726Z,54
2018-03-21T14:48:33.150Z,52
2018-03-21T14:49:35.931Z,51
2018-03-21T14:50:38.617Z,49
2018-03-21T14:51:41.113Z,48
2018-03-21T14:52:43.781Z,46
2018-03-21T14:53:46.212Z,44
2018-03-21T14:54:48.636Z,44